24J

Suwannee County Airport

Live Oak, Florida, USA
METAR K24J 172035Z AUTO 34003KT 10SM FEW050 SCT070 BKN080 32/21 A3008 RMK A01
Observed Flight Rules
Oct-17 @ 20:35 UTC (9 minutes ago) Visual Flight Rules
Wind Visibility Clouds
340° at 3 knots 10 miles
  • Few at 5,000' AGL
  • Scattered at 7,000' AGL
  • Broken at 8,000' AGL
Temperatures Readings
Current 32°C / 90°F
Dewpoint 21°C / 70°F
Humidity 52%
Altimeter 30.08" Hg
Pressure 1019 hPa
Elevation 32
METAR K24J 172035Z AUTO 34003KT 10SM FEW050 SCT070 BKN080 32/21 A3008 RMK A01
Observed Flight Rules
Oct-17 @ 20:35 UTC
(9 minutes ago)
VFR
Wind Visibility
340° at 3 knots 10 miles
Clouds
  • Few at 5,000' AGL
  • Scattered at 7,000' AGL
  • Broken at 8,000' AGL
Temperature Dewpoint
32°C / 90°F 21°C / 70°F
Humidity Altimeter Pressure
52% 30.08" Hg 1019 hPa